createdAt,value
2022-11-08T00:00:46.216Z,11.62
2022-11-08T00:03:12.575Z,11.58
2022-11-08T00:05:38.939Z,11.59
2022-11-08T00:08:06.723Z,11.64
2022-11-08T00:10:33.044Z,11.65
2022-11-08T00:12:59.334Z,11.71
2022-11-08T00:15:25.688Z,11.72
2022-11-08T00:17:51.984Z,11.73
2022-11-08T00:20:18.258Z,11.73
2022-11-08T00:22:44.572Z,11.71
2022-11-08T00:25:12.231Z,11.69
2022-11-08T00:27:38.535Z,11.64
2022-11-08T00:30:05.364Z,11.60
2022-11-08T00:32:31.662Z,11.59
2022-11-08T00:34:58.091Z,11.57
2022-11-08T00:37:24.400Z,11.56
2022-11-08T00:39:50.701Z,11.52
2022-11-08T00:42:18.336Z,11.48
2022-11-08T00:44:44.602Z,11.41
2022-11-08T00:47:10.908Z,11.39
2022-11-08T00:49:37.276Z,11.38
2022-11-08T00:52:03.654Z,11.36
2022-11-08T00:54:29.949Z,11.37
2022-11-08T00:56:56.244Z,11.34
2022-11-08T00:59:23.869Z,11.35
2022-11-08T01:01:50.287Z,11.33
2022-11-08T01:04:17.805Z,11.34
2022-11-08T01:06:44.456Z,11.34
2022-11-08T01:09:10.761Z,11.34
2022-11-08T01:11:37.592Z,11.37
2022-11-08T01:14:03.892Z,11.34
2022-11-08T01:16:32.339Z,11.32
2022-11-08T01:18:59.061Z,11.31
2022-11-08T01:21:26.159Z,11.31
2022-11-08T01:23:52.860Z,11.32
2022-11-08T01:26:20.141Z,11.33
2022-11-08T01:28:46.886Z,11.35
2022-11-08T01:31:14.428Z,11.34
2022-11-08T01:33:45.664Z,11.32
2022-11-08T01:36:15.939Z,11.28
2022-11-08T01:38:42.346Z,11.27
2022-11-08T01:41:11.074Z,11.26
2022-11-08T01:43:39.021Z,11.24
2022-11-08T01:46:23.050Z,11.23
2022-11-08T01:48:53.439Z,11.22
2022-11-08T01:51:21.813Z,11.19
2022-11-08T01:53:48.616Z,11.16
2022-11-08T01:56:15.338Z,11.16
2022-11-08T01:58:43.305Z,11.12
2022-11-08T02:01:09.917Z,11.14
2022-11-08T02:03:36.445Z,11.18
2022-11-08T02:06:04.346Z,11.15
2022-11-08T02:08:31.993Z,11.12
2022-11-08T02:10:58.267Z,11.11
2022-11-08T02:13:25.765Z,11.08
2022-11-08T02:15:52.055Z,11.11
2022-11-08T02:18:19.788Z,11.09
2022-11-08T02:20:50.689Z,11.09
2022-11-08T02:23:21.908Z,11.08
2022-11-08T02:25:49.840Z,11.13
2022-11-08T02:28:16.555Z,11.09
2022-11-08T02:30:43.150Z,11.11
2022-11-08T02:33:16.071Z,11.10
2022-11-08T02:35:42.594Z,11.12
2022-11-08T02:38:08.893Z,11.17
2022-11-08T02:40:44.957Z,11.19
2022-11-08T02:43:12.602Z,11.16
2022-11-08T02:45:38.905Z,11.09
2022-11-08T02:48:05.719Z,11.11
2022-11-08T02:50:32.020Z,11.08
2022-11-08T02:52:58.299Z,11.05
2022-11-08T02:55:24.605Z,11.02
2022-11-08T02:57:50.904Z,11.01
2022-11-08T03:00:19.025Z,10.98
2022-11-08T03:02:45.414Z,10.91
2022-11-08T03:05:11.758Z,10.88
2022-11-08T03:07:38.030Z,10.84
2022-11-08T03:10:04.697Z,10.81
2022-11-08T03:12:30.983Z,10.77
2022-11-08T03:14:57.266Z,10.76
2022-11-08T03:17:24.937Z,10.76
2022-11-08T03:19:51.233Z,10.79
2022-11-08T03:22:17.521Z,10.77
2022-11-08T03:24:43.822Z,10.76
2022-11-08T03:27:10.127Z,10.77
2022-11-08T03:29:36.423Z,10.80
2022-11-08T03:32:02.753Z,10.79
2022-11-08T03:34:30.409Z,10.77
2022-11-08T03:36:56.754Z,10.78
2022-11-08T03:39:23.077Z,10.77
2022-11-08T03:41:49.378Z,10.79
2022-11-08T03:44:15.692Z,10.75
2022-11-08T03:46:42.159Z,10.78
2022-11-08T03:49:08.477Z,10.76
2022-11-08T03:51:36.102Z,10.72
2022-11-08T03:54:02.377Z,10.75
2022-11-08T03:56:28.657Z,10.73
2022-11-08T03:58:54.948Z,10.70
2022-11-08T04:01:21.432Z,10.74
2022-11-08T04:03:47.751Z,10.73
2022-11-08T04:06:14.093Z,10.69
2022-11-08T04:08:41.733Z,10.65
2022-11-08T04:11:08.027Z,10.67
2022-11-08T04:13:34.298Z,10.68
2022-11-08T04:16:00.653Z,10.68
2022-11-08T04:18:26.981Z,10.65
2022-11-08T04:20:53.293Z,10.65
2022-11-08T04:23:19.568Z,10.70
2022-11-08T04:25:53.129Z,10.72
2022-11-08T04:28:19.764Z,10.74
2022-11-08T04:30:46.221Z,10.76
2022-11-08T04:33:15.216Z,10.80
2022-11-08T04:35:41.639Z,10.79
2022-11-08T04:38:07.921Z,10.79
2022-11-08T04:40:34.637Z,10.81
2022-11-08T04:43:02.267Z,10.79
2022-11-08T04:45:28.538Z,10.79
2022-11-08T04:47:54.822Z,10.83
2022-11-08T04:50:21.124Z,10.81
2022-11-08T04:52:50.813Z,10.83
2022-11-08T04:55:17.141Z,10.78
2022-11-08T04:57:43.418Z,10.81
2022-11-08T05:00:12.138Z,10.81
2022-11-08T05:02:38.614Z,10.83
2022-11-08T05:05:05.505Z,10.85
2022-11-08T05:07:31.868Z,10.80
2022-11-08T05:10:02.224Z,10.82
2022-11-08T05:12:28.991Z,10.76
2022-11-08T05:14:55.267Z,10.75
2022-11-08T05:17:22.888Z,10.76
2022-11-08T05:19:49.190Z,10.74
2022-11-08T05:22:15.481Z,10.69
2022-11-08T05:24:41.771Z,10.65
2022-11-08T05:27:08.828Z,10.64
2022-11-08T05:29:38.625Z,10.58
2022-11-08T05:32:08.292Z,10.61
2022-11-08T05:34:35.926Z,10.58
2022-11-08T05:37:02.225Z,10.63
2022-11-08T05:39:32.079Z,10.62
2022-11-08T05:41:58.654Z,10.54
2022-11-08T05:44:24.939Z,10.54
2022-11-08T05:46:51.221Z,10.56
2022-11-08T05:49:17.617Z,10.56
2022-11-08T05:51:45.239Z,10.53
2022-11-08T05:54:11.539Z,10.52
2022-11-08T05:56:37.852Z,10.53
2022-11-08T05:59:04.374Z,10.47
2022-11-08T06:01:30.714Z,10.43
2022-11-08T06:03:57.049Z,10.40
2022-11-08T06:06:23.340Z,10.39
2022-11-08T06:08:52.229Z,10.40
2022-11-08T06:11:20.214Z,10.35
2022-11-08T06:13:46.881Z,10.30
2022-11-08T06:16:13.907Z,10.32
2022-11-08T06:18:40.804Z,10.29
2022-11-08T06:21:08.003Z,10.29
2022-11-08T06:23:34.325Z,10.27
2022-11-08T06:26:02.008Z,10.30
2022-11-08T06:28:28.367Z,10.25
2022-11-08T06:30:54.668Z,10.26
2022-11-08T06:33:21.358Z,10.30
2022-11-08T06:35:47.962Z,10.29
2022-11-08T06:38:14.428Z,10.27
2022-11-08T06:40:40.706Z,10.27
2022-11-08T06:43:11.041Z,10.30
2022-11-08T06:45:39.055Z,10.29
2022-11-08T06:48:06.671Z,10.29
2022-11-08T06:50:33.559Z,10.29
2022-11-08T06:53:00.871Z,10.32
2022-11-08T06:55:27.547Z,10.29
2022-11-08T06:57:53.893Z,10.27
2022-11-08T07:00:22.053Z,10.28
2022-11-08T07:02:51.726Z,10.28
2022-11-08T07:05:18.105Z,10.28
2022-11-08T07:07:44.482Z,10.25
2022-11-08T07:10:10.870Z,10.28
2022-11-08T07:12:37.154Z,10.33
2022-11-08T07:15:03.591Z,10.32
2022-11-08T07:17:35.722Z,10.36
2022-11-08T07:20:05.267Z,10.39
2022-11-08T07:22:31.561Z,10.39
2022-11-08T07:24:57.849Z,10.43
2022-11-08T07:27:24.149Z,10.42
2022-11-08T07:29:50.443Z,10.44
2022-11-08T07:32:16.713Z,10.46
2022-11-08T07:34:44.337Z,10.54
2022-11-08T07:37:10.621Z,10.50
2022-11-08T07:39:36.919Z,10.54
2022-11-08T07:42:03.218Z,10.56
2022-11-08T07:44:29.505Z,10.58
2022-11-08T07:46:55.799Z,10.60
2022-11-08T07:49:22.125Z,10.62
2022-11-08T07:51:49.808Z,10.65
2022-11-08T07:54:16.181Z,10.68
2022-11-08T07:56:42.473Z,10.72
2022-11-08T07:59:08.738Z,10.79
2022-11-08T08:01:35.736Z,10.85
2022-11-08T08:04:02.080Z,10.90
2022-11-08T08:06:28.423Z,10.99
2022-11-08T08:08:56.648Z,10.98
2022-11-08T08:11:22.964Z,11.09
2022-11-08T08:13:49.274Z,11.13
2022-11-08T08:16:15.604Z,11.13
2022-11-08T08:18:42.109Z,11.17
2022-11-08T08:21:08.404Z,11.21
2022-11-08T08:23:34.687Z,11.27
2022-11-08T08:26:02.664Z,11.29
2022-11-08T08:28:28.939Z,11.38
2022-11-08T08:30:55.243Z,11.46
2022-11-08T08:33:28.349Z,11.43
2022-11-08T08:36:00.419Z,11.46
2022-11-08T08:38:26.710Z,11.51
2022-11-08T08:40:53.014Z,11.53
2022-11-08T08:43:21.072Z,11.55
2022-11-08T08:45:47.661Z,11.57
2022-11-08T08:48:14.247Z,11.62
2022-11-08T08:50:40.562Z,11.73
2022-11-08T08:53:07.119Z,11.79
2022-11-08T08:55:33.724Z,11.84
2022-11-08T08:57:59.997Z,11.94
2022-11-08T09:03:14.349Z,12.08
2022-11-08T09:05:41.333Z,12.13
2022-11-08T09:08:07.654Z,12.22
2022-11-08T09:10:34.085Z,12.29
2022-11-08T09:13:01.126Z,12.36
2022-11-08T09:15:28.809Z,12.44
2022-11-08T09:17:55.309Z,12.52
2022-11-08T09:20:21.687Z,12.56
2022-11-08T09:22:48.009Z,12.65
2022-11-08T09:25:14.299Z,12.71
2022-11-08T09:27:40.593Z,12.79
2022-11-08T09:30:07.900Z,12.87
2022-11-08T09:32:59.030Z,12.93
2022-11-08T09:35:22.080Z,13.03
2022-11-08T09:37:49.862Z,13.11
2022-11-08T09:42:57.639Z,13.28
2022-11-08T09:45:26.438Z,13.36
2022-11-08T09:47:57.810Z,13.41
2022-11-08T09:50:26.922Z,13.50
2022-11-08T09:52:57.918Z,13.59
2022-11-08T09:55:27.340Z,13.65
2022-11-08T09:58:01.313Z,13.67
2022-11-08T10:00:28.166Z,13.69
2022-11-08T10:02:56.271Z,13.71
2022-11-08T10:05:22.580Z,13.71
2022-11-08T10:07:53.101Z,13.71
2022-11-08T10:10:33.739Z,13.73
2022-11-08T10:13:04.693Z,13.77
2022-11-08T10:15:35.026Z,13.80
2022-11-08T10:18:15.505Z,13.82
2022-11-08T10:20:46.549Z,13.83
2022-11-08T10:23:18.909Z,13.89
2022-11-08T10:25:47.515Z,13.96
2022-11-08T10:28:15.205Z,14.04
2022-11-08T10:30:42.600Z,14.10
2022-11-08T10:33:14.584Z,14.14
2022-11-08T10:35:42.837Z,14.17
2022-11-08T10:38:15.417Z,14.18
2022-11-08T10:40:45.523Z,14.22
2022-11-08T10:43:14.851Z,14.23
2022-11-08T10:45:41.185Z,14.25
2022-11-08T10:48:09.095Z,14.25
2022-11-08T10:50:42.549Z,14.24
2022-11-08T10:53:12.716Z,14.26
2022-11-08T10:55:46.444Z,14.28
2022-11-08T10:58:27.485Z,14.31
2022-11-08T11:00:59.383Z,14.35
2022-11-08T11:03:25.678Z,14.38
2022-11-08T11:05:57.855Z,14.38
2022-11-08T11:08:24.175Z,14.39
2022-11-08T11:10:50.604Z,14.39
2022-11-08T11:13:19.493Z,14.42
2022-11-08T11:15:47.318Z,14.47
2022-11-08T11:18:23.562Z,14.53
2022-11-08T11:21:11.542Z,14.57
2022-11-08T11:23:39.816Z,14.60
2022-11-08T11:26:06.850Z,14.64
2022-11-08T11:28:33.537Z,14.67
2022-11-08T11:31:00.878Z,14.70
2022-11-08T11:33:27.553Z,14.73
2022-11-08T11:35:56.693Z,14.73
2022-11-08T11:38:30.357Z,14.76
2022-11-08T11:41:00.838Z,14.81
2022-11-08T11:43:29.540Z,14.81
2022-11-08T11:45:58.038Z,14.87
2022-11-08T11:48:26.990Z,14.91
2022-11-08T11:50:53.416Z,14.94
2022-11-08T11:53:21.472Z,14.96
2022-11-08T11:55:54.998Z,15.01
2022-11-08T11:58:31.802Z,15.04
2022-11-08T12:01:01.778Z,15.08
2022-11-08T12:03:37.226Z,15.16
2022-11-08T12:06:11.816Z,15.19
2022-11-08T12:08:47.690Z,15.22
2022-11-08T12:11:27.798Z,15.19
2022-11-08T12:14:04.430Z,15.13
2022-11-08T12:16:34.081Z,15.08
2022-11-08T12:19:09.993Z,15.10
2022-11-08T12:21:42.823Z,15.12
2022-11-08T12:24:15.752Z,15.08
2022-11-08T12:26:47.474Z,15.04
2022-11-08T12:29:20.719Z,15.03
2022-11-08T12:31:52.404Z,15.03
2022-11-08T12:34:21.005Z,15.00
2022-11-08T12:36:52.255Z,15.02
2022-11-08T12:39:25.031Z,15.02
2022-11-08T12:42:00.287Z,15.01
2022-11-08T12:44:39.100Z,15.00
2022-11-08T12:47:11.938Z,15.01
2022-11-08T12:49:46.291Z,14.99
2022-11-08T12:52:21.127Z,15.05
2022-11-08T12:54:50.801Z,15.07
2022-11-08T12:57:18.811Z,15.07
2022-11-08T12:59:47.302Z,15.09
2022-11-08T13:02:17.478Z,15.09
2022-11-08T13:04:48.881Z,15.13
2022-11-08T13:07:19.012Z,15.17
2022-11-08T13:09:47.892Z,15.21
2022-11-08T13:12:24.261Z,15.27
2022-11-08T13:14:51.024Z,15.34
2022-11-08T13:17:18.733Z,15.37
2022-11-08T13:20:05.376Z,15.37
2022-11-08T13:22:59.089Z,15.34
2022-11-08T13:25:33.364Z,15.33
2022-11-08T13:28:00.999Z,15.33
2022-11-08T13:30:38.204Z,15.35
2022-11-08T13:33:20.680Z,15.31
2022-11-08T13:35:51.565Z,15.33
2022-11-08T13:38:23.480Z,15.43
2022-11-08T13:41:08.412Z,15.44
2022-11-08T13:43:36.061Z,15.49
2022-11-08T13:46:20.821Z,15.52
2022-11-08T13:49:02.586Z,15.57
2022-11-08T13:51:29.348Z,15.54
2022-11-08T13:53:56.734Z,15.53
2022-11-08T13:56:44.073Z,15.56
2022-11-08T13:59:29.044Z,15.54
2022-11-08T14:02:00.601Z,15.53
2022-11-08T14:04:27.564Z,15.53
2022-11-08T14:07:00.539Z,15.49
2022-11-08T14:09:33.823Z,15.49
2022-11-08T14:12:02.293Z,15.49
2022-11-08T14:14:40.157Z,15.54
2022-11-08T14:17:12.115Z,15.50
2022-11-08T14:19:39.384Z,15.50
2022-11-08T14:22:12.216Z,15.48
2022-11-08T14:24:38.710Z,15.51
2022-11-08T14:27:05.000Z,15.52
2022-11-08T14:29:31.317Z,15.52
2022-11-08T14:32:01.457Z,15.46
2022-11-08T14:34:30.164Z,15.41
2022-11-08T14:36:56.953Z,15.37
2022-11-08T14:39:25.873Z,15.34
2022-11-08T14:41:53.091Z,15.28
2022-11-08T14:44:19.526Z,15.27
2022-11-08T14:46:45.954Z,15.26
2022-11-08T14:49:18.878Z,15.23
2022-11-08T14:51:46.747Z,15.19
2022-11-08T14:54:16.035Z,15.15
2022-11-08T14:56:42.355Z,15.17
2022-11-08T14:59:10.226Z,15.14
2022-11-08T15:01:36.729Z,15.12
2022-11-08T15:04:04.993Z,15.10
2022-11-08T15:06:32.768Z,15.09
2022-11-08T15:09:01.092Z,15.15
2022-11-08T15:11:29.281Z,15.21
2022-11-08T15:13:57.075Z,15.20
2022-11-08T15:16:23.529Z,15.15
2022-11-08T15:18:50.069Z,15.10
2022-11-08T15:21:21.893Z,15.05
2022-11-08T15:23:49.192Z,15.04
2022-11-08T15:26:21.099Z,15.03
2022-11-08T15:28:54.725Z,14.97
2022-11-08T15:31:21.109Z,14.93
2022-11-08T15:33:47.460Z,14.94
2022-11-08T15:36:14.953Z,14.89
2022-11-08T15:38:42.264Z,14.87
2022-11-08T15:41:23.450Z,14.88
2022-11-08T15:43:51.095Z,14.93
2022-11-08T15:46:26.153Z,14.92
2022-11-08T15:48:56.663Z,14.87
2022-11-08T15:51:22.956Z,14.85
2022-11-08T15:53:49.243Z,14.81
2022-11-08T15:56:15.546Z,14.78
2022-11-08T15:58:41.820Z,14.78
2022-11-08T16:01:16.416Z,14.77
2022-11-08T16:03:42.721Z,14.77
2022-11-08T16:06:09.734Z,14.74
2022-11-08T16:08:36.040Z,14.71
2022-11-08T16:11:02.398Z,14.68
2022-11-08T16:13:29.641Z,14.64
2022-11-08T16:15:56.300Z,14.58
2022-11-08T16:18:24.000Z,14.55
2022-11-08T16:20:50.313Z,14.48
2022-11-08T16:23:16.696Z,14.43
2022-11-08T16:25:44.373Z,14.39
2022-11-08T16:28:15.306Z,14.35
2022-11-08T16:30:41.572Z,14.31
2022-11-08T16:33:17.591Z,14.32
2022-11-08T16:35:45.230Z,14.27
2022-11-08T16:38:11.514Z,14.25
2022-11-08T16:40:37.901Z,14.24
2022-11-08T16:43:04.195Z,14.22
2022-11-08T16:46:03.114Z,14.18
2022-11-08T16:48:22.304Z,14.19
2022-11-08T16:50:50.128Z,14.20
2022-11-08T16:53:17.104Z,14.17
2022-11-08T16:55:43.389Z,14.21
2022-11-08T16:58:09.695Z,14.23
2022-11-08T17:00:37.057Z,14.29
2022-11-08T17:03:03.432Z,14.24
2022-11-08T17:05:29.710Z,14.23
2022-11-08T17:07:57.334Z,14.20
2022-11-08T17:10:24.376Z,14.19
2022-11-08T17:12:51.001Z,14.26
2022-11-08T17:15:18.385Z,14.25
2022-11-08T17:17:45.089Z,14.24
2022-11-08T17:20:13.710Z,14.21
2022-11-08T17:22:40.414Z,14.23
2022-11-08T17:25:09.311Z,14.25
2022-11-08T17:27:35.626Z,14.28
2022-11-08T17:30:01.922Z,14.33
2022-11-08T17:32:28.342Z,14.37
2022-11-08T17:34:54.755Z,14.38
2022-11-08T17:37:21.070Z,14.40
2022-11-08T17:39:47.347Z,14.43
2022-11-08T17:42:14.984Z,14.43
2022-11-08T17:44:41.410Z,14.41
2022-11-08T17:47:07.722Z,14.34
2022-11-08T17:49:34.034Z,14.31
2022-11-08T17:52:00.348Z,14.31
2022-11-08T17:54:26.618Z,14.31
2022-11-08T17:56:52.907Z,14.29
2022-11-08T17:59:21.127Z,14.32
2022-11-08T18:01:47.493Z,14.31
2022-11-08T18:04:13.980Z,14.30
2022-11-08T18:06:40.394Z,14.29
2022-11-08T18:09:06.834Z,14.31
2022-11-08T18:11:33.221Z,14.32
2022-11-08T18:13:59.629Z,14.30
2022-11-08T18:16:32.597Z,14.28
2022-11-08T18:18:58.896Z,14.30
2022-11-08T18:21:25.270Z,14.26
2022-11-08T18:23:51.657Z,14.34
2022-11-08T18:26:18.032Z,14.37
2022-11-08T18:28:44.787Z,14.34
2022-11-08T18:31:12.053Z,14.31
2022-11-08T18:33:40.115Z,14.32
2022-11-08T18:36:07.200Z,14.33
2022-11-08T18:38:33.569Z,14.32
2022-11-08T18:40:59.862Z,14.32
2022-11-08T18:43:26.161Z,14.30
2022-11-08T18:45:52.450Z,14.28
2022-11-08T18:48:18.783Z,14.29
2022-11-08T18:50:50.235Z,14.30
2022-11-08T18:53:16.757Z,14.26
2022-11-08T18:55:44.158Z,14.25
2022-11-08T18:58:10.536Z,14.20
2022-11-08T19:00:36.958Z,14.20
2022-11-08T19:03:03.258Z,14.23
2022-11-08T19:05:29.562Z,14.19
2022-11-08T19:07:57.181Z,14.19
2022-11-08T19:10:23.677Z,14.23
2022-11-08T19:12:49.984Z,14.22
2022-11-08T19:15:16.337Z,14.16
2022-11-08T19:17:42.723Z,14.18
2022-11-08T19:20:09.548Z,14.15
2022-11-08T19:22:35.884Z,14.12
2022-11-08T19:25:03.839Z,14.09
2022-11-08T19:27:30.143Z,14.10
2022-11-08T19:29:56.427Z,14.08
2022-11-08T19:32:22.717Z,14.08
2022-11-08T19:34:49.026Z,14.09
2022-11-08T19:37:15.333Z,14.08
2022-11-08T19:39:41.621Z,14.12
2022-11-08T19:42:09.279Z,14.15
2022-11-08T19:44:35.712Z,14.14
2022-11-08T19:47:01.991Z,14.18
2022-11-08T19:49:28.321Z,14.23
2022-11-08T19:51:54.634Z,14.26
2022-11-08T19:54:20.954Z,14.32
2022-11-08T19:57:04.591Z,14.40
2022-11-08T19:59:33.024Z,14.46
2022-11-08T20:01:59.364Z,14.47
2022-11-08T20:04:25.703Z,14.49
2022-11-08T20:06:52.063Z,14.51
2022-11-08T20:09:18.458Z,14.56
2022-11-08T20:11:44.755Z,14.52
2022-11-08T20:14:11.716Z,14.55
2022-11-08T20:16:40.154Z,14.57
2022-11-08T20:19:07.428Z,14.56
2022-11-08T20:21:33.750Z,14.54
2022-11-08T20:24:00.650Z,14.50
2022-11-08T20:26:27.265Z,14.48
2022-11-08T20:28:57.435Z,14.56
2022-11-08T20:31:24.712Z,14.56
2022-11-08T20:33:53.419Z,14.56
2022-11-08T20:36:20.784Z,14.65
2022-11-08T20:38:47.065Z,14.65
2022-11-08T20:41:14.178Z,14.66
2022-11-08T20:43:40.849Z,14.64
2022-11-08T20:46:08.727Z,14.64
2022-11-08T20:48:35.030Z,14.63
2022-11-08T20:51:03.607Z,14.62
2022-11-08T20:53:31.039Z,14.61
2022-11-08T20:55:57.588Z,14.59
2022-11-08T20:58:24.694Z,14.58
2022-11-08T21:00:58.421Z,14.65
2022-11-08T21:03:25.860Z,14.61
2022-11-08T21:05:52.468Z,14.66
2022-11-08T21:11:07.343Z,14.70
2022-11-08T21:13:34.544Z,14.67
2022-11-08T21:16:26.761Z,14.63
2022-11-08T21:18:47.544Z,14.60
2022-11-08T21:21:15.042Z,14.58
2022-11-08T21:23:44.745Z,14.51
2022-11-08T21:26:11.682Z,14.52
2022-11-08T21:28:38.417Z,14.54
2022-11-08T21:31:04.852Z,14.52
2022-11-08T21:33:31.275Z,14.51
2022-11-08T21:35:58.039Z,14.47
2022-11-08T21:38:24.772Z,14.41
2022-11-08T21:40:52.780Z,14.39
2022-11-08T21:43:19.385Z,14.37
2022-11-08T21:45:46.045Z,14.31
2022-11-08T21:48:15.294Z,14.29
2022-11-08T21:50:41.995Z,14.21
2022-11-08T21:53:10.328Z,14.23
2022-11-08T21:55:36.649Z,14.18
2022-11-08T21:58:04.276Z,14.14
2022-11-08T22:00:30.812Z,14.13
2022-11-08T22:02:57.144Z,14.13
2022-11-08T22:05:23.570Z,14.09
2022-11-08T22:07:49.862Z,14.07
2022-11-08T22:10:16.505Z,14.03
2022-11-08T22:12:42.804Z,14.02
2022-11-08T22:15:10.887Z,14.03
2022-11-08T22:17:42.926Z,14.05
2022-11-08T22:20:16.674Z,14.05
2022-11-08T22:22:42.951Z,14.03
2022-11-08T22:25:09.236Z,14.02
2022-11-08T22:27:35.533Z,14.00
2022-11-08T22:30:01.853Z,13.97
2022-11-08T22:32:29.544Z,13.97
2022-11-08T22:34:55.833Z,13.93
2022-11-08T22:37:22.143Z,13.92
2022-11-08T22:39:48.463Z,13.92
2022-11-08T22:42:14.730Z,13.97
2022-11-08T22:44:41.061Z,13.95
2022-11-08T22:47:07.365Z,13.92
2022-11-08T22:49:35.035Z,13.92
2022-11-08T22:52:01.344Z,13.93
2022-11-08T22:54:27.616Z,13.92
2022-11-08T22:56:53.916Z,13.99
2022-11-08T22:59:20.209Z,13.93
2022-11-08T23:01:46.487Z,13.90
2022-11-08T23:04:12.774Z,13.89
2022-11-08T23:06:40.431Z,13.98
2022-11-08T23:09:06.856Z,13.92
2022-11-08T23:11:33.163Z,13.89
2022-11-08T23:13:59.445Z,13.89
2022-11-08T23:16:25.750Z,13.85
2022-11-08T23:18:52.081Z,13.82
2022-11-08T23:21:18.393Z,13.81
2022-11-08T23:23:46.031Z,13.84
2022-11-08T23:26:12.336Z,13.85
2022-11-08T23:28:38.636Z,13.84
2022-11-08T23:31:05.048Z,13.82
2022-11-08T23:33:31.355Z,13.83
2022-11-08T23:35:57.650Z,13.82
2022-11-08T23:38:23.962Z,13.82
2022-11-08T23:40:51.564Z,13.79
2022-11-08T23:43:19.172Z,13.76
2022-11-08T23:45:45.715Z,13.74
2022-11-08T23:48:11.986Z,13.77
2022-11-08T23:50:38.288Z,13.75
2022-11-08T23:53:04.567Z,13.73
2022-11-08T23:55:30.867Z,13.69
2022-11-08T23:57:58.504Z,13.71
